Time;durP1;ratioP1;P1;durP2;ratioP2;P2;SDS_P1;SDS_P2;PMS_P1;PMS_P2;Temp;Humidity;BMP_temperature;BMP_pressure;BME280_temperature;BME280_humidity;BME280_pressure;Samples;Min_cycle;Max_cycle;Signal;HPM_P1;HPM_P2
2023/04/22 00:00:53;;;;;;;8.13;5.93;;;16.70;83.10;;;;;;5006806;28;20041;-78
2023/04/22 00:03:21;;;;;;;7.60;5.50;;;16.70;83.10;;;;;;5027491;28;20552;-78
2023/04/22 00:05:47;;;;;;;8.43;5.47;;;16.70;83.20;;;;;;5031519;28;20033;-78
2023/04/22 00:08:13;;;;;;;8.15;6.03;;;16.70;83.30;;;;;;5033413;28;20436;-77
2023/04/22 00:10:38;;;;;;;8.38;5.30;;;16.60;83.40;;;;;;5033515;28;20076;-77
2023/04/22 00:13:04;;;;;;;6.25;5.20;;;16.60;83.50;;;;;;5033227;28;20116;-78
2023/04/22 00:15:30;;;;;;;7.65;6.05;;;16.60;83.40;;;;;;5032173;28;20088;-77
2023/04/22 00:17:57;;;;;;;6.65;5.35;;;16.60;83.00;;;;;;5032226;28;20083;-77
2023/04/22 00:20:23;;;;;;;8.55;5.40;;;16.60;82.80;;;;;;5033034;28;20469;-77
2023/04/22 00:22:49;;;;;;;8.05;5.95;;;16.60;83.00;;;;;;5031752;28;20033;-78
2023/04/22 00:25:15;;;;;;;8.93;6.18;;;16.60;83.20;;;;;;5032344;28;20385;-78
2023/04/22 00:27:41;;;;;;;6.57;5.47;;;16.60;83.10;;;;;;5032725;28;20574;-77
2023/04/22 00:30:08;;;;;;;9.00;5.88;;;16.60;83.10;;;;;;5016516;28;20461;-78
2023/04/22 00:32:34;;;;;;;8.43;5.72;;;16.60;83.10;;;;;;5030623;28;20030;-78
2023/04/22 00:34:59;;;;;;;7.97;5.82;;;16.60;83.00;;;;;;5030500;28;20037;-80
2023/04/22 00:37:27;;;;;;;7.05;6.35;;;16.60;83.10;;;;;;5032619;28;20076;-81
2023/04/22 00:39:52;;;;;;;6.90;5.82;;;16.60;83.30;;;;;;5014373;28;20034;-81
2023/04/22 00:42:18;;;;;;;8.48;5.93;;;16.60;83.40;;;;;;5030816;28;20021;-78
2023/04/22 00:44:46;;;;;;;7.15;5.78;;;16.60;83.50;;;;;;5032030;28;20469;-76
2023/04/22 00:47:12;;;;;;;7.15;6.28;;;16.50;83.30;;;;;;5033102;28;20469;-76
2023/04/22 00:49:38;;;;;;;9.38;5.93;;;16.50;83.40;;;;;;5032748;28;20116;-76
2023/04/22 00:52:04;;;;;;;7.50;6.63;;;16.50;83.50;;;;;;5014918;28;20083;-76
2023/04/22 00:54:30;;;;;;;9.80;6.88;;;16.50;83.60;;;;;;5032427;28;20025;-75
2023/04/22 00:56:57;;;;;;;10.07;6.80;;;16.50;83.70;;;;;;5026098;28;20036;-76
2023/04/22 00:59:25;;;;;;;13.68;6.85;;;16.40;83.60;;;;;;5032455;28;20168;-76
2023/04/22 01:01:52;;;;;;;8.80;6.32;;;16.40;83.60;;;;;;5031292;28;20036;-76
2023/04/22 01:04:18;;;;;;;10.07;6.70;;;16.30;83.40;;;;;;5030639;28;20025;-76
2023/04/22 01:06:45;;;;;;;8.35;6.28;;;16.30;83.60;;;;;;5032026;28;20029;-76
2023/04/22 01:09:12;;;;;;;8.70;6.75;;;16.20;83.60;;;;;;5032241;28;20473;-76
2023/04/22 01:11:38;;;;;;;9.32;7.00;;;16.20;83.80;;;;;;5032030;28;20033;-76
2023/04/22 01:14:04;;;;;;;8.20;6.70;;;16.20;83.80;;;;;;5031576;28;20109;-76
2023/04/22 01:16:32;;;;;;;9.13;7.45;;;16.10;83.80;;;;;;5031752;28;20040;-76
2023/04/22 01:18:58;;;;;;;7.65;6.35;;;16.10;83.90;;;;;;5032602;28;20057;-76
2023/04/22 01:21:26;;;;;;;9.60;6.60;;;16.00;83.90;;;;;;5031922;28;20030;-76
2023/04/22 01:23:52;;;;;;;9.55;7.57;;;16.00;84.10;;;;;;5031059;28;20049;-76
2023/04/22 01:26:18;;;;;;;8.77;6.55;;;15.90;84.10;;;;;;5032534;28;20068;-77
2023/04/22 01:28:44;;;;;;;12.52;7.68;;;15.90;84.20;;;;;;5032635;28;20033;-76
2023/04/22 01:31:10;;;;;;;9.98;6.93;;;15.90;84.40;;;;;;5029179;28;20485;-76
2023/04/22 01:33:36;;;;;;;8.90;7.38;;;15.90;84.40;;;;;;5035746;28;20117;-76
2023/04/22 01:36:02;;;;;;;8.73;6.78;;;15.90;84.40;;;;;;5034132;28;20022;-76
2023/04/22 01:38:32;;;;;;;9.77;6.95;;;15.80;84.50;;;;;;5034670;28;20041;-75
2023/04/22 01:40:58;;;;;;;10.40;7.65;;;15.70;84.60;;;;;;5033077;28;20447;-75
2023/04/22 01:43:24;;;;;;;13.20;8.73;;;15.70;84.70;;;;;;5034363;28;21630;-75
2023/04/22 01:45:49;;;;;;;9.82;7.43;;;15.70;84.80;;;;;;5033551;28;20044;-76
2023/04/22 01:48:15;;;;;;;10.38;7.75;;;15.60;85.00;;;;;;5033061;28;20033;-75
2023/04/22 01:50:41;;;;;;;10.25;7.72;;;15.70;85.20;;;;;;5035135;28;20477;-76
2023/04/22 01:53:07;;;;;;;11.32;8.35;;;15.70;85.30;;;;;;5033097;28;20418;-76
2023/04/22 01:55:34;;;;;;;9.55;8.20;;;15.70;85.30;;;;;;5034660;28;20386;-75
2023/04/22 01:58:01;;;;;;;13.63;9.05;;;15.70;85.40;;;;;;5032072;28;20037;-75
2023/04/22 02:00:26;;;;;;;10.05;7.68;;;15.70;85.40;;;;;;5033868;28;20112;-75
2023/04/22 02:02:52;;;;;;;10.95;8.35;;;15.80;85.40;;;;;;5034586;28;20104;-75
2023/04/22 02:05:18;;;;;;;10.38;8.25;;;15.80;85.40;;;;;;5032612;28;20028;-76
2023/04/22 02:07:43;;;;;;;11.65;8.77;;;15.80;85.50;;;;;;5034102;28;20059;-76
2023/04/22 02:10:10;;;;;;;10.02;8.23;;;15.80;85.60;;;;;;5016177;28;20037;-75
2023/04/22 02:12:36;;;;;;;10.27;7.97;;;15.80;85.60;;;;;;5033969;28;20030;-75
2023/04/22 02:15:02;;;;;;;11.32;9.07;;;15.80;85.60;;;;;;5017168;28;20580;-75
2023/04/22 02:17:29;;;;;;;11.95;9.45;;;15.80;85.60;;;;;;5034795;28;20038;-75
2023/04/22 02:19:54;;;;;;;11.88;9.45;;;15.80;85.50;;;;;;5034467;28;20030;-75
2023/04/22 02:22:22;;;;;;;11.30;9.02;;;15.80;85.50;;;;;;5033019;28;20184;-75
2023/04/22 02:24:48;;;;;;;13.85;9.35;;;15.80;85.50;;;;;;5033628;28;20025;-75
2023/04/22 02:27:14;;;;;;;10.73;9.13;;;15.80;85.50;;;;;;5033532;28;20021;-75
2023/04/22 02:29:40;;;;;;;13.23;9.73;;;15.80;85.50;;;;;;5035119;28;20061;-75
2023/04/22 02:32:06;;;;;;;10.25;8.80;;;15.90;86.00;;;;;;5034197;28;20048;-76
2023/04/22 02:34:32;;;;;;;11.07;9.90;;;15.90;85.50;;;;;;5016126;28;20030;-75
2023/04/22 02:36:57;;;;;;;11.25;9.60;;;15.90;85.30;;;;;;5034962;28;20045;-75
2023/04/22 02:39:24;;;;;;;13.43;9.82;;;15.90;85.30;;;;;;5034805;28;20037;-75
2023/04/22 02:41:50;;;;;;;11.23;10.00;;;15.90;85.30;;;;;;5013626;28;20037;-75
2023/04/22 02:44:15;;;;;;;12.40;10.00;;;15.90;85.30;;;;;;5032795;28;20025;-75
2023/04/22 02:46:41;;;;;;;13.68;9.82;;;15.90;85.20;;;;;;5032832;28;20100;-75
2023/04/22 02:49:07;;;;;;;10.00;8.82;;;15.90;85.30;;;;;;5034557;28;20454;-75
2023/04/22 02:51:32;;;;;;;14.65;10.05;;;15.90;85.40;;;;;;5034840;28;20030;-75
2023/04/22 02:53:59;;;;;;;12.35;8.90;;;15.90;85.50;;;;;;5033497;28;20030;-75
2023/04/22 02:56:25;;;;;;;13.20;9.40;;;15.90;85.60;;;;;;5033328;28;20033;-75
2023/04/22 02:58:51;;;;;;;12.98;8.48;;;15.90;85.60;;;;;;5012975;28;20441;-76
2023/04/22 03:01:16;;;;;;;10.18;8.80;;;15.90;85.40;;;;;;5034027;28;20033;-75
2023/04/22 03:03:42;;;;;;;12.98;10.02;;;15.90;85.30;;;;;;5033311;28;20061;-75
2023/04/22 03:06:08;;;;;;;13.63;9.20;;;15.90;85.30;;;;;;5034568;28;20033;-75
2023/04/22 03:08:33;;;;;;;13.23;9.80;;;15.90;85.20;;;;;;5034451;28;20040;-75
2023/04/22 03:10:59;;;;;;;11.73;8.70;;;15.90;85.20;;;;;;5034589;28;20033;-75
2023/04/22 03:13:24;;;;;;;10.13;8.18;;;15.90;85.20;;;;;;5033053;28;20481;-75
2023/04/22 03:15:50;;;;;;;10.88;8.48;;;15.90;85.10;;;;;;5034466;28;20473;-75
2023/04/22 03:18:16;;;;;;;9.45;8.25;;;15.90;84.90;;;;;;5033941;28;20375;-75
2023/04/22 03:20:42;;;;;;;10.23;8.95;;;15.90;84.90;;;;;;5033896;28;20037;-76
2023/04/22 03:23:07;;;;;;;11.43;9.25;;;15.90;84.90;;;;;;5033655;28;20018;-75
2023/04/22 03:25:35;;;;;;;10.50;8.52;;;15.90;84.70;;;;;;5033813;28;20025;-76
2023/04/22 03:28:01;;;;;;;10.63;8.80;;;15.90;84.60;;;;;;5033056;28;20125;-76
2023/04/22 03:30:26;;;;;;;11.00;8.80;;;15.90;84.60;;;;;;5032836;28;20525;-76
2023/04/22 03:32:52;;;;;;;10.27;9.18;;;15.90;84.60;;;;;;5031579;28;20033;-76
2023/04/22 03:35:19;;;;;;;10.90;9.05;;;15.90;84.60;;;;;;5032271;28;20065;-76
2023/04/22 03:37:44;;;;;;;11.18;8.20;;;15.80;84.30;;;;;;5032194;28;20038;-76
2023/04/22 03:40:10;;;;;;;11.27;8.65;;;15.80;84.30;;;;;;5031596;28;20028;-76
2023/04/22 03:42:36;;;;;;;10.00;8.13;;;15.80;84.30;;;;;;5018957;28;20021;-75
2023/04/22 03:45:02;;;;;;;11.00;8.60;;;15.80;84.20;;;;;;5032536;28;20458;-76
2023/04/22 03:47:28;;;;;;;11.07;8.00;;;15.80;84.20;;;;;;5033267;28;20022;-76
2023/04/22 03:49:53;;;;;;;11.55;7.72;;;15.80;84.30;;;;;;5033219;28;20438;-76
2023/04/22 03:52:19;;;;;;;11.57;8.02;;;15.80;84.30;;;;;;5033294;28;20021;-76
2023/04/22 03:54:44;;;;;;;10.05;7.97;;;15.80;84.30;;;;;;5014458;28;20112;-75
2023/04/22 03:57:10;;;;;;;11.85;7.78;;;15.70;84.10;;;;;;5033373;28;20101;-75
2023/04/22 03:59:36;;;;;;;9.52;7.15;;;15.70;84.10;;;;;;5032828;28;20088;-75
2023/04/22 04:02:01;;;;;;;8.60;7.38;;;15.70;84.20;;;;;;5032728;28;20029;-75
2023/04/22 04:04:28;;;;;;;9.65;7.03;;;15.70;84.20;;;;;;5013076;28;20661;-75
2023/04/22 04:06:55;;;;;;;8.98;7.18;;;15.70;84.20;;;;;;5032377;28;20091;-75
2023/04/22 04:09:21;;;;;;;9.25;6.97;;;15.70;84.00;;;;;;5032810;28;20048;-77
2023/04/22 04:11:46;;;;;;;8.15;7.32;;;15.70;83.90;;;;;;5032935;28;20037;-75
2023/04/22 04:14:12;;;;;;;10.63;6.88;;;15.70;83.80;;;;;;5031574;28;20029;-75
2023/04/22 04:16:37;;;;;;;8.00;6.45;;;15.70;83.70;;;;;;5033416;28;20026;-75
2023/04/22 04:19:05;;;;;;;9.02;6.60;;;15.60;83.60;;;;;;5032989;28;20036;-76
2023/04/22 04:21:32;;;;;;;7.82;6.45;;;15.70;83.50;;;;;;5011617;28;20419;-76
2023/04/22 04:23:58;;;;;;;7.93;6.18;;;15.60;83.60;;;;;;5028773;28;20405;-77
2023/04/22 04:26:26;;;;;;;8.52;6.95;;;15.60;83.70;;;;;;5032528;28;20025;-77
2023/04/22 04:28:52;;;;;;;8.00;6.63;;;15.60;83.60;;;;;;5011116;28;20512;-79
2023/04/22 04:31:18;;;;;;;7.00;5.90;;;15.60;83.70;;;;;;5023672;28;20465;-79
2023/04/22 04:33:45;;;;;;;8.55;6.57;;;15.60;83.70;;;;;;5031330;28;20030;-79
2023/04/22 04:36:11;;;;;;;7.30;6.30;;;15.60;83.60;;;;;;5030412;28;20366;-78
2023/04/22 04:38:37;;;;;;;7.80;5.82;;;15.60;83.60;;;;;;5032236;28;20037;-78
2023/04/22 04:41:03;;;;;;;8.50;6.97;;;15.60;83.50;;;;;;5031843;28;20116;-79
2023/04/22 04:43:29;;;;;;;7.00;5.75;;;15.60;83.50;;;;;;5030247;28;20041;-79
2023/04/22 04:45:55;;;;;;;7.90;6.57;;;15.60;83.30;;;;;;5030650;28;20021;-78
2023/04/22 04:48:23;;;;;;;8.15;6.70;;;15.60;83.30;;;;;;5032643;28;20053;-79
2023/04/22 04:50:52;;;;;;;8.48;6.00;;;15.60;83.30;;;;;;5028540;28;20030;-78
2023/04/22 04:53:21;;;;;;;8.05;6.25;;;15.60;83.40;;;;;;5031455;28;20159;-79
2023/04/22 04:55:47;;;;;;;8.98;6.32;;;15.60;83.30;;;;;;5027224;28;20032;-78
2023/04/22 04:58:13;;;;;;;8.25;6.45;;;15.60;83.30;;;;;;5032350;28;20029;-78
2023/04/22 05:00:39;;;;;;;9.77;6.25;;;15.60;83.40;;;;;;5014556;28;20473;-78
2023/04/22 05:03:04;;;;;;;6.72;5.47;;;15.50;83.40;;;;;;4996977;28;20112;-76
2023/04/22 05:05:30;;;;;;;6.60;5.82;;;15.50;83.40;;;;;;5031581;28;20053;-75
2023/04/22 05:07:56;;;;;;;6.97;5.88;;;15.50;83.30;;;;;;5033444;28;20037;-75
2023/04/22 05:10:22;;;;;;;7.75;6.32;;;15.60;83.40;;;;;;5017484;28;20397;-75
2023/04/22 05:12:47;;;;;;;7.82;6.47;;;15.60;83.30;;;;;;5036392;28;20026;-75
2023/04/22 05:15:14;;;;;;;7.60;6.35;;;15.60;83.30;;;;;;5031031;28;20116;-75
2023/04/22 05:17:39;;;;;;;7.50;6.35;;;15.50;83.20;;;;;;5030478;28;20099;-75
2023/04/22 05:20:06;;;;;;;7.32;5.97;;;15.60;83.10;;;;;;5030624;28;20469;-78
2023/04/22 05:22:31;;;;;;;6.20;5.45;;;15.60;83.00;;;;;;5010856;28;20095;-82
2023/04/22 05:24:57;;;;;;;5.80;4.93;;;15.60;83.00;;;;;;5033603;28;20017;-81
2023/04/22 05:27:23;;;;;;;6.18;5.30;;;15.60;83.00;;;;;;5033133;28;20506;-82
2023/04/22 05:29:49;;;;;;;8.10;5.82;;;15.70;83.00;;;;;;5013774;28;20116;-83
2023/04/22 05:32:15;;;;;;;11.02;5.55;;;15.70;82.80;;;;;;5036520;28;20041;-81
2023/04/22 05:34:41;;;;;;;8.27;6.07;;;15.70;82.70;;;;;;5034644;28;20462;-81
2023/04/22 05:37:07;;;;;;;5.82;5.20;;;15.70;82.70;;;;;;5034732;28;20037;-81
2023/04/22 05:39:33;;;;;;;6.65;5.88;;;15.70;82.60;;;;;;5029701;28;20026;-83
2023/04/22 05:41:58;;;;;;;8.13;5.22;;;15.80;82.60;;;;;;5031916;28;20074;-82
2023/04/22 05:44:24;;;;;;;7.88;5.40;;;15.80;82.70;;;;;;5034191;28;20072;-75
2023/04/22 05:46:50;;;;;;;7.72;5.43;;;15.90;82.60;;;;;;5028928;28;20081;-79
2023/04/22 05:49:15;;;;;;;7.28;6.13;;;15.80;82.20;;;;;;5024468;28;20460;-78
2023/04/22 05:51:41;;;;;;;7.30;5.55;;;15.80;82.00;;;;;;5032124;28;20477;-83
2023/04/22 05:54:07;;;;;;;6.20;5.20;;;15.90;82.00;;;;;;5018834;28;20773;-80
2023/04/22 05:56:32;;;;;;;7.22;4.85;;;15.90;82.10;;;;;;5026596;28;20466;-80
2023/04/22 05:58:58;;;;;;;8.70;5.88;;;15.90;82.00;;;;;;5016347;28;20057;-80
2023/04/22 06:01:24;;;;;;;6.57;5.15;;;16.00;81.90;;;;;;5019107;28;20033;-81
2023/04/22 06:03:50;;;;;;;7.13;5.30;;;16.00;81.80;;;;;;5022232;28;20034;-80
2023/04/22 06:06:16;;;;;;;7.00;5.15;;;16.10;81.50;;;;;;5025762;28;20032;-81
2023/04/22 06:08:42;;;;;;;6.78;5.18;;;16.10;81.20;;;;;;5019902;28;20038;-78
2023/04/22 06:11:07;;;;;;;6.10;4.80;;;16.20;81.30;;;;;;5006827;28;20079;-78
2023/04/22 06:13:33;;;;;;;5.32;4.45;;;16.20;81.10;;;;;;5022660;28;20117;-78
2023/04/22 06:16:00;;;;;;;5.43;4.88;;;16.20;80.80;;;;;;5028613;28;20100;-78
2023/04/22 06:18:25;;;;;;;5.68;4.28;;;16.20;80.60;;;;;;5023891;28;20025;-78
2023/04/22 06:20:52;;;;;;;6.13;4.60;;;16.20;80.70;;;;;;5021963;28;20084;-78
2023/04/22 06:23:18;;;;;;;5.93;4.93;;;16.20;80.60;;;;;;5029441;28;20057;-80
2023/04/22 06:25:44;;;;;;;6.45;5.00;;;16.30;80.60;;;;;;5018933;28;20068;-78
2023/04/22 06:28:10;;;;;;;5.90;4.38;;;16.30;80.70;;;;;;5027095;28;20033;-78
2023/04/22 06:30:36;;;;;;;6.00;4.93;;;16.30;80.70;;;;;;5028503;28;20022;-78
2023/04/22 06:33:01;;;;;;;7.03;4.50;;;16.30;80.60;;;;;;5031398;28;20033;-79
2023/04/22 06:35:27;;;;;;;8.43;5.13;;;16.30;80.50;;;;;;5023586;28;20068;-80
2023/04/22 06:37:53;;;;;;;5.30;4.07;;;16.30;80.60;;;;;;5031978;28;20045;-80
2023/04/22 06:40:19;;;;;;;10.20;4.13;;;16.40;80.50;;;;;;5030816;28;20034;-80
2023/04/22 06:42:44;;;;;;;6.18;4.50;;;16.40;80.60;;;;;;5034727;28;20022;-80
2023/04/22 06:45:11;;;;;;;5.10;4.60;;;16.50;80.70;;;;;;5018786;28;20152;-79
2023/04/22 06:47:39;;;;;;;5.90;5.10;;;16.50;80.40;;;;;;5001706;28;20014;-80
2023/04/22 06:50:09;;;;;;;6.40;4.43;;;16.60;80.30;;;;;;5025667;28;20060;-80
2023/04/22 06:52:35;;;;;;;5.53;4.95;;;16.60;80.20;;;;;;5024054;28;20022;-80
2023/04/22 06:55:02;;;;;;;6.22;4.80;;;16.60;80.30;;;;;;5015137;28;20472;-79
2023/04/22 06:57:28;;;;;;;4.07;3.67;;;16.60;80.40;;;;;;5016046;28;20029;-80
2023/04/22 06:59:54;;;;;;;6.63;4.30;;;16.70;80.30;;;;;;5026363;28;20109;-79
2023/04/22 07:02:20;;;;;;;4.90;4.00;;;16.60;80.00;;;;;;5020767;28;20425;-79
2023/04/22 07:04:46;;;;;;;5.13;4.10;;;16.60;80.30;;;;;;5025102;28;20032;-80
2023/04/22 07:07:12;;;;;;;5.43;4.10;;;16.60;80.40;;;;;;5012363;28;20049;-77
2023/04/22 07:09:38;;;;;;;5.43;4.93;;;16.70;80.30;;;;;;5031573;28;20037;-77
2023/04/22 07:12:04;;;;;;;5.18;4.13;;;16.70;80.10;;;;;;5016025;28;20029;-77
2023/04/22 07:14:31;;;;;;;5.57;4.20;;;16.80;80.00;;;;;;5028497;28;20022;-77
2023/04/22 07:17:02;;;;;;;5.22;4.57;;;16.80;80.10;;;;;;5018056;28;20093;-77
2023/04/22 07:19:29;;;;;;;4.38;3.97;;;16.90;80.00;;;;;;5011733;28;20030;-77
2023/04/22 07:21:54;;;;;;;5.05;4.40;;;16.90;79.90;;;;;;5020633;28;20061;-77
2023/04/22 07:24:20;;;;;;;6.15;3.85;;;16.90;80.00;;;;;;5023978;28;20029;-80
2023/04/22 07:26:46;;;;;;;5.13;4.22;;;17.00;80.00;;;;;;5020984;28;20026;-81
2023/04/22 07:29:14;;;;;;;3.80;3.40;;;17.10;79.50;;;;;;5022961;28;20033;-80
2023/04/22 07:31:40;;;;;;;4.75;3.70;;;17.20;79.20;;;;;;5027049;28;20064;-78
2023/04/22 07:34:05;;;;;;;5.32;3.78;;;17.20;79.00;;;;;;5023404;28;20061;-77
2023/04/22 07:36:32;;;;;;;4.70;4.00;;;17.40;79.20;;;;;;5020580;28;20489;-78
2023/04/22 07:38:58;;;;;;;5.00;3.72;;;17.40;79.30;;;;;;5020558;28;20469;-78
2023/04/22 07:41:23;;;;;;;4.07;3.67;;;17.60;79.10;;;;;;5021237;28;20068;-80
2023/04/22 07:43:49;;;;;;;4.57;3.53;;;17.70;78.60;;;;;;5023838;28;20096;-80
2023/04/22 07:46:14;;;;;;;4.22;3.83;;;17.70;78.20;;;;;;5032884;28;20099;-81
2023/04/22 07:48:40;;;;;;;5.88;4.32;;;17.80;77.90;;;;;;5033537;28;20101;-81
2023/04/22 07:51:06;;;;;;;4.75;4.00;;;17.80;77.20;;;;;;5033404;28;20029;-81
2023/04/22 07:53:31;;;;;;;5.32;4.55;;;17.80;77.10;;;;;;5032971;28;20028;-81
2023/04/22 07:55:57;;;;;;;4.53;4.13;;;17.80;76.90;;;;;;5014657;28;20112;-81
2023/04/22 07:58:23;;;;;;;5.72;4.60;;;17.90;77.10;;;;;;5013577;28;20110;-77
2023/04/22 08:00:48;;;;;;;6.38;4.22;;;18.00;77.00;;;;;;5013723;28;20101;-77
2023/04/22 08:03:14;;;;;;;6.55;4.85;;;18.10;77.20;;;;;;5020594;28;20056;-78
2023/04/22 08:05:40;;;;;;;5.10;4.55;;;18.10;76.80;;;;;;5033255;28;20065;-77
2023/04/22 08:08:06;;;;;;;6.25;4.82;;;18.20;77.30;;;;;;5033355;28;20026;-78
2023/04/22 08:10:32;;;;;;;5.10;4.60;;;18.40;77.60;;;;;;5033987;28;20033;-78
2023/04/22 08:12:57;;;;;;;7.07;4.78;;;18.50;76.80;;;;;;5033670;28;20381;-78
2023/04/22 08:15:23;;;;;;;8.20;5.32;;;18.50;76.10;;;;;;5032400;28;20083;-77
2023/04/22 08:17:49;;;;;;;9.40;5.60;;;18.60;76.10;;;;;;5023757;28;20057;-78
2023/04/22 08:20:16;;;;;;;6.95;5.63;;;18.60;76.30;;;;;;5027513;28;20492;-77
2023/04/22 08:22:43;;;;;;;6.28;5.43;;;18.70;76.50;;;;;;5024164;28;20030;-80
2023/04/22 08:25:09;;;;;;;6.63;5.68;;;18.80;76.40;;;;;;5016010;28;20033;-81
2023/04/22 08:27:36;;;;;;;6.13;4.95;;;18.90;76.40;;;;;;5032381;28;20358;-81
2023/04/22 08:30:01;;;;;;;5.38;4.88;;;19.00;76.40;;;;;;5027683;28;20022;-81
2023/04/22 08:32:27;;;;;;;11.38;5.53;;;19.10;76.10;;;;;;5001622;28;20032;-81
2023/04/22 08:34:53;;;;;;;10.15;5.97;;;19.20;76.00;;;;;;5016020;28;20107;-82
2023/04/22 08:37:19;;;;;;;6.47;5.38;;;19.30;75.60;;;;;;5037032;28;20056;-81
2023/04/22 08:39:44;;;;;;;6.05;5.03;;;19.40;75.40;;;;;;5032935;28;20393;-82
2023/04/22 08:42:11;;;;;;;6.47;5.35;;;19.50;74.90;;;;;;5033170;28;20032;-81
2023/04/22 08:44:38;;;;;;;11.55;5.55;;;19.60;74.70;;;;;;5031092;28;20441;-80
2023/04/22 08:47:05;;;;;;;8.65;5.18;;;19.70;74.60;;;;;;5013324;28;20393;-80
2023/04/22 08:49:30;;;;;;;7.10;5.15;;;19.80;74.80;;;;;;5036328;28;20500;-80
2023/04/22 08:51:56;;;;;;;8.00;6.25;;;19.80;75.10;;;;;;5030358;28;20069;-80
2023/04/22 08:54:25;;;;;;;7.40;5.20;;;19.90;73.80;;;;;;5028542;28;20033;-79
2023/04/22 08:56:52;;;;;;;20.00;6.22;;;19.90;74.10;;;;;;5031463;28;20065;-80
2023/04/22 08:59:19;;;;;;;8.38;6.07;;;20.00;74.60;;;;;;5027115;28;20080;-78
2023/04/22 09:01:50;;;;;;;9.13;7.45;;;20.10;74.80;;;;;;5030076;28;20030;-78
2023/04/22 09:04:17;;;;;;;10.50;7.18;;;20.30;74.50;;;;;;5032165;28;20095;-77
2023/04/22 09:06:43;;;;;;;14.63;8.93;;;20.40;74.40;;;;;;5032158;28;20374;-79
2023/04/22 09:09:09;;;;;;;12.43;7.70;;;20.50;74.00;;;;;;5031121;28;20029;-80
2023/04/22 09:11:35;;;;;;;10.07;7.30;;;20.60;73.80;;;;;;5039517;28;20086;-80
2023/04/22 09:14:02;;;;;;;8.48;6.28;;;20.80;73.50;;;;;;5023536;28;20470;-79
2023/04/22 09:16:40;;;;;;;8.55;6.47;;;20.90;73.70;;;;;;5010231;28;20075;-80
2023/04/22 09:19:10;;;;;;;9.70;6.43;;;21.00;73.40;;;;;;5021506;28;20017;-80
2023/04/22 09:21:36;;;;;;;10.63;6.80;;;21.20;73.50;;;;;;5029550;28;20037;-80
2023/04/22 09:24:02;;;;;;;10.70;6.03;;;21.30;72.90;;;;;;5027838;28;20030;-80
2023/04/22 09:26:29;;;;;;;8.55;6.10;;;21.40;72.80;;;;;;5031764;28;20464;-80
2023/04/22 09:28:59;;;;;;;7.80;5.75;;;21.40;73.20;;;;;;5032567;28;20038;-79
2023/04/22 09:31:28;;;;;;;7.88;6.25;;;21.50;73.00;;;;;;5029130;28;20033;-78
2023/04/22 09:33:56;;;;;;;10.32;6.57;;;21.60;72.90;;;;;;5028702;28;20036;-78
2023/04/22 09:36:26;;;;;;;10.30;6.40;;;21.70;72.60;;;;;;5027715;28;20057;-78
2023/04/22 09:38:54;;;;;;;11.02;6.07;;;21.90;72.20;;;;;;5022214;28;20045;-78
2023/04/22 09:41:29;;;;;;;8.73;7.22;;;21.90;72.00;;;;;;5003130;28;20176;-79
2023/04/22 09:43:57;;;;;;;10.35;7.30;;;22.10;71.80;;;;;;5005076;28;20060;-78
2023/04/22 09:46:24;;;;;;;10.95;7.53;;;22.20;71.10;;;;;;5021788;28;20037;-78
2023/04/22 09:48:52;;;;;;;13.27;8.20;;;22.20;70.80;;;;;;5004654;28;20123;-79
2023/04/22 09:51:18;;;;;;;13.52;10.23;;;22.40;70.20;;;;;;5021083;28;20124;-79
2023/04/22 09:53:45;;;;;;;11.15;8.30;;;22.40;70.00;;;;;;5032802;28;20029;-82
2023/04/22 09:56:11;;;;;;;13.50;8.50;;;22.50;69.80;;;;;;5022326;28;20026;-83
2023/04/22 09:58:41;;;;;;;10.75;7.65;;;22.60;69.50;;;;;;5034781;28;20038;-82
2023/04/22 10:01:07;;;;;;;12.40;9.27;;;22.70;69.80;;;;;;5035901;28;20107;-78
2023/04/22 10:03:34;;;;;;;12.82;10.00;;;22.70;69.80;;;;;;5026907;28;20076;-78
2023/04/22 10:05:59;;;;;;;15.25;10.18;;;22.90;70.20;;;;;;5016092;28;20556;-81
2023/04/22 10:08:26;;;;;;;11.02;8.90;;;23.00;70.00;;;;;;5017295;28;20111;-82
2023/04/22 10:10:52;;;;;;;13.98;9.57;;;23.00;70.40;;;;;;5036053;28;20071;-82
2023/04/22 10:13:18;;;;;;;15.82;12.25;;;23.20;70.40;;;;;;5033950;28;20029;-82
2023/04/22 10:15:49;;;;;;;13.40;11.15;;;23.30;69.70;;;;;;5026765;28;20033;-82
2023/04/22 10:18:20;;;;;;;14.00;10.23;;;23.40;70.00;;;;;;5017238;28;20030;-82
2023/04/22 10:20:47;;;;;;;12.98;9.75;;;23.50;69.70;;;;;;5030127;28;20037;-82
2023/04/22 10:23:22;;;;;;;13.60;10.77;;;23.60;69.80;;;;;;5019664;28;20101;-82
2023/04/22 10:25:56;;;;;;;10.25;8.80;;;23.70;69.50;;;;;;5023484;28;20156;-78
2023/04/22 10:28:26;;;;;;;12.18;9.77;;;23.80;69.10;;;;;;5018890;28;20042;-77
2023/04/22 10:30:52;;;;;;;11.82;8.95;;;23.90;69.20;;;;;;5027312;28;20038;-84
2023/04/22 10:33:22;;;;;;;11.98;9.63;;;24.00;69.10;;;;;;5016049;28;20057;-86
2023/04/22 10:36:09;;;;;;;;;;;24.10;68.70;;;;;;5026269;28;20033;-85
2023/04/22 10:38:55;;;;;;;10.57;9.15;;;24.20;68.30;;;;;;5014960;28;20297;-85
2023/04/22 10:41:28;;;;;;;10.10;9.10;;;24.30;68.30;;;;;;5001570;28;20050;-77
2023/04/22 10:43:59;;;;;;;13.27;10.35;;;24.40;68.70;;;;;;5017232;28;20537;-77
2023/04/22 10:46:34;;;;;;;13.43;10.52;;;24.50;68.30;;;;;;5031439;28;20107;-85
2023/04/22 10:49:06;;;;;;;12.18;10.23;;;24.50;67.10;;;;;;5021084;28;20025;-77
2023/04/22 10:51:43;;;;;;;12.30;8.95;;;24.50;67.50;;;;;;5013997;28;20124;-78
2023/04/22 10:54:27;;;;;;;13.57;9.70;;;24.60;67.70;;;;;;5024721;28;20040;-77
2023/04/22 10:57:10;;;;;;;11.10;8.90;;;24.70;67.30;;;;;;5009001;28;20029;-77
2023/04/22 10:59:47;;;;;;;11.68;9.23;;;24.70;67.10;;;;;;5031982;28;20067;-77
2023/04/22 11:02:14;;;;;;;12.13;8.80;;;24.80;67.10;;;;;;5022794;28;20021;-77
2023/04/22 11:04:41;;;;;;;11.98;10.00;;;24.90;66.70;;;;;;5022943;28;20125;-77
2023/04/22 11:07:25;;;;;;;10.63;9.50;;;25.00;66.20;;;;;;5008317;28;20032;-77
2023/04/22 11:10:39;;;;;;;13.00;9.68;;;25.10;65.70;;;;;;5024409;28;20051;-78
2023/04/22 11:13:07;;;;;;;16.77;10.23;;;25.30;65.20;;;;;;5018434;28;20041;-79
2023/04/22 11:15:36;;;;;;;11.35;9.45;;;25.40;65.10;;;;;;5025419;28;20108;-77
2023/04/22 11:18:02;;;;;;;16.08;9.85;;;25.50;65.60;;;;;;5018932;28;20022;-77
2023/04/22 11:20:29;;;;;;;13.00;10.85;;;25.60;65.10;;;;;;5020751;28;20026;-78
2023/04/22 11:22:56;;;;;;;15.23;11.88;;;25.80;64.00;;;;;;5017117;28;20017;-77
2023/04/22 11:25:24;;;;;;;15.13;12.10;;;25.90;63.70;;;;;;5019925;28;20045;-85
2023/04/22 11:27:53;;;;;;;13.52;11.15;;;26.10;63.20;;;;;;5019949;28;20133;-77
2023/04/22 11:30:20;;;;;;;10.63;9.52;;;26.20;63.20;;;;;;5015072;28;20088;-84
2023/04/22 11:32:55;;;;;;;13.38;9.93;;;26.20;63.00;;;;;;5000681;28;20064;-84
2023/04/22 11:35:27;;;;;;;12.93;11.57;;;26.50;62.90;;;;;;5022699;28;20195;-77
2023/04/22 11:37:56;;;;;;;14.18;12.65;;;26.70;62.30;;;;;;5019769;28;20069;-78
2023/04/22 11:40:28;;;;;;;12.82;10.80;;;26.90;61.70;;;;;;5020989;28;20037;-77
2023/04/22 11:42:55;;;;;;;14.02;12.02;;;27.10;61.70;;;;;;5006875;28;20110;-76
2023/04/22 11:45:21;;;;;;;15.32;12.57;;;27.30;60.60;;;;;;5028590;28;20029;-77
2023/04/22 11:47:49;;;;;;;13.05;11.70;;;27.50;59.90;;;;;;5010213;28;20703;-77
2023/04/22 11:50:16;;;;;;;14.80;12.15;;;27.60;59.70;;;;;;5013619;28;20366;-77
2023/04/22 11:52:53;;;;;;;13.88;12.18;;;27.70;58.90;;;;;;5022896;28;20565;-76
2023/04/22 11:55:31;;;;;;;22.15;11.25;;;27.90;58.10;;;;;;5029287;28;20033;-83
2023/04/22 11:58:18;;;;;;;15.27;11.43;;;28.00;58.30;;;;;;5007655;28;20033;-84
2023/04/22 12:00:46;;;;;;;13.15;10.80;;;28.10;57.10;;;;;;5023018;28;20380;-84
2023/04/22 12:03:21;;;;;;;12.93;10.98;;;28.20;58.00;;;;;;5024604;28;20049;-83
2023/04/22 12:05:53;;;;;;;13.45;11.35;;;28.40;57.40;;;;;;5031404;28;20446;-84
2023/04/22 12:08:25;;;;;;;12.57;10.55;;;28.40;56.60;;;;;;5026853;28;20029;-83
2023/04/22 12:11:00;;;;;;;13.57;10.48;;;28.50;56.90;;;;;;5022191;28;20021;-83
2023/04/22 12:13:35;;;;;;;12.45;10.65;;;28.50;56.20;;;;;;5028710;28;20029;-83
2023/04/22 12:16:01;;;;;;;13.02;11.38;;;28.60;56.00;;;;;;5019932;28;20072;-84
2023/04/22 12:18:51;;;;;;;11.68;9.43;;;28.60;55.50;;;;;;5019602;28;20033;-83
2023/04/22 12:21:20;;;;;;;9.93;8.52;;;28.60;54.40;;;;;;5007451;28;20033;-83
2023/04/22 12:23:51;;;;;;;12.57;9.15;;;28.60;55.10;;;;;;5016673;28;20078;-84
2023/04/22 12:26:19;;;;;;;13.55;10.98;;;28.60;54.10;;;;;;5028464;28;20025;-84
2023/04/22 12:28:45;;;;;;;12.02;10.18;;;28.60;54.90;;;;;;5022108;28;20033;-84
2023/04/22 12:31:13;;;;;;;12.27;9.95;;;28.60;55.20;;;;;;5025547;28;20040;-83
2023/04/22 12:33:39;;;;;;;11.35;9.30;;;28.50;54.70;;;;;;5024829;28;20037;-83
2023/04/22 12:36:06;;;;;;;14.30;10.45;;;28.50;54.70;;;;;;5006207;28;20026;-84
2023/04/22 12:38:32;;;;;;;9.93;8.65;;;28.20;54.20;;;;;;5021256;28;20442;-84
2023/04/22 12:40:58;;;;;;;11.90;10.38;;;28.20;54.50;;;;;;5027367;28;20117;-84